Purlear, NC (28665)

3:29 PM EST on January 30, 2015 (GMT -0500)
Phillips Gap | Change Station
CLOSE
Current Station
Personal Weather Station
Location: Purlear, NC
Elevation: 3064 ft
Nearby Weather Stations
Active Advisory: Special Statement Active Notice: Public Information Statement

Elev 3064 ft 36.25 °N, 81.41 °W | Updated 27 minutes ago

Clear
Clear
30.9 °F
Feels Like 19 °F
N
18.0
Wind Variable Wind from NW
Gusts 33.0 mph

Today
High -- | Low -- °F
--% Chance of Precip.
Yesterday
High -- | Low -- °F
Precip. -- in
7:28 AM 5:49 PM
Waxing Gibbous, 85% visible
Pressure 30.09 in
Visibility 10.0 miles
Clouds Scattered Clouds 2400 ft
Mostly Cloudy 3100 ft
Windchill 19 °F
Dew Point 16 °F
Humidity 54%
Rainfall -999.00 in
Snow Depth Not available.
UV 1 out of 12
Pollen .40 out of 12
Air Quality Not available.
Flu Activity Not available.
METAR KGEV 302015Z AUTO 31026G39KT 10SM SCT024 BKN031 M02/M11 A3009 RMK AO2 T10191106

More Conditions Fewer Conditions

Pressure 30.09 in
Visibility 10.0 miles
Clouds Scattered Clouds 2400 ft
Mostly Cloudy 3100 ft
Windchill 19 °F
Dew Point 16 °F
Humidity 54%
Rainfall -999.00 in
Snow Depth Not available.
UV 1 out of 12
Pollen .40 out of 12
Air Quality Not available.
Flu Activity Not available.
METAR KGEV 302015Z AUTO 31026G39KT 10SM SCT024 BKN031 M02/M11 A3009 RMK AO2 T10191106

More Conditions Fewer Conditions

10-Day Weather Forecast

Almanac

Astronomy

Jan. 30, 2015 Rise Set
Actual Time
Civil Twilight
Nautical Twilight
Astronomical Twilight
Moon
Length of Visible Light
Length of Day
Tomorrow will be .
, % of the Moon is Illuminated

Today's Extremes

State Highs State Lows

Community

WunderPhotos

Upload Photos

1,791,887 photos uploaded!

WunderBlogs® & News

Nearby

Air Quality

  Air Quality AQ Index Pollutant
Not available.

Snow Depth

Station Depth Elevation

Earthquake Activity

City Distance Mag. Time & Date
Minimum magnitude displayed is 2.5.

Coastal Water Temperatures

Place Temperature

Nearby Weather Stations